Estancia La Primavera, Argentina
Current Conditions -  °F | °C
As of 8:00 PM on Saturday 22 Nov 2014 (Local Time) from SAZN Reporting Station
Clear Clear  
Wind Chill: 26°   Ceiling: Unl
Heat Index: 26°   Visibility: 6mi
Dew Point:   Wind: 7mph
Humidity: 18%   Direction: 230°SW
Pressure: 29.74"   Gusts: NA
Location:  38.48°S, 67.46°W
Report Text: SAZN 222300Z 23006KT CAVOK 26/M00 Q1007
Loading
Personal Weather Stations






























Interactive Weather Map New forecast layout! Learn more

10-Day Weather Forecast

Advertisements
Track Severe Weather on mobile